sensor_id;sensor_type;location;lat;lon;timestamp;temperature;humidity
1347;DHT22;667;48.796;9.480;2023-02-28T00:00:22;3.70;51.50
1347;DHT22;667;48.796;9.480;2023-02-28T00:02:48;3.70;51.30
1347;DHT22;667;48.796;9.480;2023-02-28T00:05:19;3.70;51.30
1347;DHT22;667;48.796;9.480;2023-02-28T00:07:46;3.70;51.20
1347;DHT22;667;48.796;9.480;2023-02-28T00:10:16;3.70;51.10
1347;DHT22;667;48.796;9.480;2023-02-28T00:12:53;3.70;51.40
1347;DHT22;667;48.796;9.480;2023-02-28T00:15:19;3.70;51.70
1347;DHT22;667;48.796;9.480;2023-02-28T00:17:45;3.60;51.10
1347;DHT22;667;48.796;9.480;2023-02-28T00:20:11;3.60;51.80
1347;DHT22;667;48.796;9.480;2023-02-28T00:22:39;3.60;52.40
1347;DHT22;667;48.796;9.480;2023-02-28T00:25:05;3.60;52.80
1347;DHT22;667;48.796;9.480;2023-02-28T00:27:32;3.50;53.00
1347;DHT22;667;48.796;9.480;2023-02-28T00:29:58;3.50;53.00
1347;DHT22;667;48.796;9.480;2023-02-28T00:32:24;3.50;52.70
1347;DHT22;667;48.796;9.480;2023-02-28T00:34:49;3.50;52.50
1347;DHT22;667;48.796;9.480;2023-02-28T00:37:15;3.50;52.20
1347;DHT22;667;48.796;9.480;2023-02-28T00:39:41;3.50;52.00
1347;DHT22;667;48.796;9.480;2023-02-28T00:42:07;3.50;52.20
1347;DHT22;667;48.796;9.480;2023-02-28T00:44:32;3.50;52.20
1347;DHT22;667;48.796;9.480;2023-02-28T00:46:59;3.50;52.50
1347;DHT22;667;48.796;9.480;2023-02-28T00:49:26;3.50;52.60
1347;DHT22;667;48.796;9.480;2023-02-28T00:51:52;3.40;52.30
1347;DHT22;667;48.796;9.480;2023-02-28T00:54:18;3.40;52.50
1347;DHT22;667;48.796;9.480;2023-02-28T00:56:43;3.30;53.20
1347;DHT22;667;48.796;9.480;2023-02-28T00:59:11;3.40;53.80
1347;DHT22;667;48.796;9.480;2023-02-28T01:01:37;3.30;53.80
1347;DHT22;667;48.796;9.480;2023-02-28T01:04:03;3.30;54.00
1347;DHT22;667;48.796;9.480;2023-02-28T01:06:28;3.30;53.80
1347;DHT22;667;48.796;9.480;2023-02-28T01:08:54;3.30;53.70
1347;DHT22;667;48.796;9.480;2023-02-28T01:11:20;3.30;53.70
1347;DHT22;667;48.796;9.480;2023-02-28T01:13:46;3.30;53.60
1347;DHT22;667;48.796;9.480;2023-02-28T01:16:13;3.30;53.70
1347;DHT22;667;48.796;9.480;2023-02-28T01:18:40;3.40;53.60
1347;DHT22;667;48.796;9.480;2023-02-28T01:21:07;3.40;53.60
1347;DHT22;667;48.796;9.480;2023-02-28T01:23:33;3.40;53.50
1347;DHT22;667;48.796;9.480;2023-02-28T01:26:07;3.40;53.50
1347;DHT22;667;48.796;9.480;2023-02-28T01:28:33;3.40;53.50
1347;DHT22;667;48.796;9.480;2023-02-28T01:30:58;3.40;53.50
1347;DHT22;667;48.796;9.480;2023-02-28T01:33:24;3.40;53.70
1347;DHT22;667;48.796;9.480;2023-02-28T01:36:00;3.40;53.70
1347;DHT22;667;48.796;9.480;2023-02-28T01:38:26;3.40;53.80
1347;DHT22;667;48.796;9.480;2023-02-28T01:40:53;3.40;53.80
1347;DHT22;667;48.796;9.480;2023-02-28T01:43:22;3.40;53.80
1347;DHT22;667;48.796;9.480;2023-02-28T01:45:48;3.50;54.10
1347;DHT22;667;48.796;9.480;2023-02-28T01:48:14;3.50;54.30
1347;DHT22;667;48.796;9.480;2023-02-28T01:50:43;3.40;54.20
1347;DHT22;667;48.796;9.480;2023-02-28T01:53:13;3.50;54.20
1347;DHT22;667;48.796;9.480;2023-02-28T01:55:40;3.40;54.00
1347;DHT22;667;48.796;9.480;2023-02-28T01:58:08;3.40;54.20
1347;DHT22;667;48.796;9.480;2023-02-28T02:00:35;3.30;54.40
1347;DHT22;667;48.796;9.480;2023-02-28T02:03:06;3.30;54.40
1347;DHT22;667;48.796;9.480;2023-02-28T02:05:36;3.30;54.50
1347;DHT22;667;48.796;9.480;2023-02-28T02:08:05;3.30;54.60
1347;DHT22;667;48.796;9.480;2023-02-28T02:18:39;3.30;54.90
1347;DHT22;667;48.796;9.480;2023-02-28T02:38:26;3.20;55.20
1347;DHT22;667;48.796;9.480;2023-02-28T02:41:14;3.30;55.40
1347;DHT22;667;48.796;9.480;2023-02-28T02:43:54;3.30;55.50
1347;DHT22;667;48.796;9.480;2023-02-28T02:48:56;3.20;55.40
1347;DHT22;667;48.796;9.480;2023-02-28T02:51:24;3.30;55.50
1347;DHT22;667;48.796;9.480;2023-02-28T02:53:57;3.30;55.60
1347;DHT22;667;48.796;9.480;2023-02-28T02:56:27;3.30;56.10
1347;DHT22;667;48.796;9.480;2023-02-28T02:58:59;3.30;55.70
1347;DHT22;667;48.796;9.480;2023-02-28T03:01:29;3.30;55.70
1347;DHT22;667;48.796;9.480;2023-02-28T03:03:59;3.30;55.60
1347;DHT22;667;48.796;9.480;2023-02-28T03:06:26;3.30;55.50
1347;DHT22;667;48.796;9.480;2023-02-28T03:08:52;3.30;55.50
1347;DHT22;667;48.796;9.480;2023-02-28T03:11:18;3.30;55.60
1347;DHT22;667;48.796;9.480;2023-02-28T03:17:24;3.20;55.70
1347;DHT22;667;48.796;9.480;2023-02-28T03:36:07;3.20;56.50
1347;DHT22;667;48.796;9.480;2023-02-28T03:38:45;3.30;56.40
1347;DHT22;667;48.796;9.480;2023-02-28T03:41:29;3.30;56.30
1347;DHT22;667;48.796;9.480;2023-02-28T03:44:04;3.30;56.40
1347;DHT22;667;48.796;9.480;2023-02-28T03:46:38;3.30;56.30
1347;DHT22;667;48.796;9.480;2023-02-28T03:49:18;3.30;56.30
1347;DHT22;667;48.796;9.480;2023-02-28T03:51:46;3.30;56.30
1347;DHT22;667;48.796;9.480;2023-02-28T03:54:17;3.30;56.20
1347;DHT22;667;48.796;9.480;2023-02-28T03:56:51;3.30;56.10
1347;DHT22;667;48.796;9.480;2023-02-28T03:59:34;3.30;56.20
1347;DHT22;667;48.796;9.480;2023-02-28T04:02:03;3.30;56.30
1347;DHT22;667;48.796;9.480;2023-02-28T04:04:28;3.30;56.40
1347;DHT22;667;48.796;9.480;2023-02-28T04:07:03;3.30;56.50
1347;DHT22;667;48.796;9.480;2023-02-28T04:09:28;3.30;56.60
1347;DHT22;667;48.796;9.480;2023-02-28T04:11:54;3.30;56.60
1347;DHT22;667;48.796;9.480;2023-02-28T04:14:23;3.20;56.60
1347;DHT22;667;48.796;9.480;2023-02-28T04:16:49;3.30;56.60
1347;DHT22;667;48.796;9.480;2023-02-28T04:19:16;3.30;56.70
1347;DHT22;667;48.796;9.480;2023-02-28T04:21:44;3.30;56.80
1347;DHT22;667;48.796;9.480;2023-02-28T04:24:16;3.30;56.90
1347;DHT22;667;48.796;9.480;2023-02-28T04:26:45;3.30;57.10
1347;DHT22;667;48.796;9.480;2023-02-28T04:29:12;3.20;57.00
1347;DHT22;667;48.796;9.480;2023-02-28T04:31:39;3.20;57.00
1347;DHT22;667;48.796;9.480;2023-02-28T04:34:04;3.20;57.10
1347;DHT22;667;48.796;9.480;2023-02-28T04:36:30;3.20;57.20
1347;DHT22;667;48.796;9.480;2023-02-28T04:38:56;3.20;57.40
1347;DHT22;667;48.796;9.480;2023-02-28T04:41:22;3.20;57.50
1347;DHT22;667;48.796;9.480;2023-02-28T04:43:48;3.20;57.60
1347;DHT22;667;48.796;9.480;2023-02-28T04:46:14;3.30;57.70
1347;DHT22;667;48.796;9.480;2023-02-28T04:48:40;3.30;57.60
1347;DHT22;667;48.796;9.480;2023-02-28T04:51:09;3.30;57.50
1347;DHT22;667;48.796;9.480;2023-02-28T04:53:36;3.30;57.60
1347;DHT22;667;48.796;9.480;2023-02-28T04:56:02;3.30;58.00
1347;DHT22;667;48.796;9.480;2023-02-28T04:58:28;3.30;57.50
1347;DHT22;667;48.796;9.480;2023-02-28T05:01:17;3.30;57.60
1347;DHT22;667;48.796;9.480;2023-02-28T05:03:43;3.30;57.60
1347;DHT22;667;48.796;9.480;2023-02-28T05:06:10;3.30;57.60
1347;DHT22;667;48.796;9.480;2023-02-28T05:08:36;3.30;57.60
1347;DHT22;667;48.796;9.480;2023-02-28T05:11:02;3.30;57.60
1347;DHT22;667;48.796;9.480;2023-02-28T05:13:28;3.30;57.50
1347;DHT22;667;48.796;9.480;2023-02-28T05:15:54;3.30;57.60
1347;DHT22;667;48.796;9.480;2023-02-28T05:18:20;3.30;57.60
1347;DHT22;667;48.796;9.480;2023-02-28T05:20:45;3.30;57.70
1347;DHT22;667;48.796;9.480;2023-02-28T05:23:13;3.30;57.50
1347;DHT22;667;48.796;9.480;2023-02-28T05:25:39;3.30;57.60
1347;DHT22;667;48.796;9.480;2023-02-28T05:28:05;3.30;57.60
1347;DHT22;667;48.796;9.480;2023-02-28T05:30:31;3.30;57.30
1347;DHT22;667;48.796;9.480;2023-02-28T05:32:57;3.20;57.30
1347;DHT22;667;48.796;9.480;2023-02-28T05:35:23;3.20;57.40
1347;DHT22;667;48.796;9.480;2023-02-28T05:37:49;3.20;57.30
1347;DHT22;667;48.796;9.480;2023-02-28T05:40:15;3.20;57.40
1347;DHT22;667;48.796;9.480;2023-02-28T05:42:41;3.20;57.50
1347;DHT22;667;48.796;9.480;2023-02-28T05:45:08;3.30;57.60
1347;DHT22;667;48.796;9.480;2023-02-28T05:47:34;3.30;57.50
1347;DHT22;667;48.796;9.480;2023-02-28T05:50:00;3.30;57.50
1347;DHT22;667;48.796;9.480;2023-02-28T05:52:26;3.20;57.30
1347;DHT22;667;48.796;9.480;2023-02-28T05:54:52;3.20;57.40
1347;DHT22;667;48.796;9.480;2023-02-28T05:57:17;3.30;57.40
1347;DHT22;667;48.796;9.480;2023-02-28T05:59:43;3.20;57.30
1347;DHT22;667;48.796;9.480;2023-02-28T06:02:18;3.20;57.90
1347;DHT22;667;48.796;9.480;2023-02-28T06:04:44;3.20;57.30
1347;DHT22;667;48.796;9.480;2023-02-28T06:07:10;3.20;57.40
1347;DHT22;667;48.796;9.480;2023-02-28T06:09:36;3.20;57.50
1347;DHT22;667;48.796;9.480;2023-02-28T06:12:04;3.20;57.60
1347;DHT22;667;48.796;9.480;2023-02-28T06:14:32;3.30;57.30
1347;DHT22;667;48.796;9.480;2023-02-28T06:16:58;3.20;57.40
1347;DHT22;667;48.796;9.480;2023-02-28T06:19:24;3.20;57.50
1347;DHT22;667;48.796;9.480;2023-02-28T06:21:54;3.20;57.60
1347;DHT22;667;48.796;9.480;2023-02-28T06:24:21;3.20;57.60
1347;DHT22;667;48.796;9.480;2023-02-28T06:26:46;3.20;57.60
1347;DHT22;667;48.796;9.480;2023-02-28T06:29:12;3.20;57.50
1347;DHT22;667;48.796;9.480;2023-02-28T06:31:44;3.20;57.50
1347;DHT22;667;48.796;9.480;2023-02-28T06:34:10;3.20;57.50
1347;DHT22;667;48.796;9.480;2023-02-28T06:36:40;3.20;57.60
1347;DHT22;667;48.796;9.480;2023-02-28T06:39:06;3.20;57.60
1347;DHT22;667;48.796;9.480;2023-02-28T06:41:32;3.20;57.60
1347;DHT22;667;48.796;9.480;2023-02-28T06:44:16;3.20;57.40
1347;DHT22;667;48.796;9.480;2023-02-28T06:46:43;3.20;57.50
1347;DHT22;667;48.796;9.480;2023-02-28T06:49:10;3.10;57.60
1347;DHT22;667;48.796;9.480;2023-02-28T06:51:38;3.10;57.40
1347;DHT22;667;48.796;9.480;2023-02-28T06:54:05;3.10;57.50
1347;DHT22;667;48.796;9.480;2023-02-28T06:56:34;3.10;57.50
1347;DHT22;667;48.796;9.480;2023-02-28T06:59:00;3.10;57.60
1347;DHT22;667;48.796;9.480;2023-02-28T07:01:25;3.10;57.60
1347;DHT22;667;48.796;9.480;2023-02-28T07:03:53;3.10;57.40
1347;DHT22;667;48.796;9.480;2023-02-28T07:06:20;3.20;57.60
1347;DHT22;667;48.796;9.480;2023-02-28T07:08:48;3.20;57.70
1347;DHT22;667;48.796;9.480;2023-02-28T07:11:14;3.20;57.50
1347;DHT22;667;48.796;9.480;2023-02-28T07:13:40;3.20;57.50
1347;DHT22;667;48.796;9.480;2023-02-28T07:16:09;3.20;57.60
1347;DHT22;667;48.796;9.480;2023-02-28T07:18:36;3.20;57.70
1347;DHT22;667;48.796;9.480;2023-02-28T07:21:06;3.30;57.70
1347;DHT22;667;48.796;9.480;2023-02-28T07:23:32;3.30;57.60
1347;DHT22;667;48.796;9.480;2023-02-28T07:25:58;3.30;57.20
1347;DHT22;667;48.796;9.480;2023-02-28T07:28:24;3.30;57.10
1347;DHT22;667;48.796;9.480;2023-02-28T07:30:50;3.30;57.20
1347;DHT22;667;48.796;9.480;2023-02-28T07:33:16;3.20;57.30
1347;DHT22;667;48.796;9.480;2023-02-28T07:35:42;3.20;57.30
1347;DHT22;667;48.796;9.480;2023-02-28T07:38:08;3.20;57.60
1347;DHT22;667;48.796;9.480;2023-02-28T07:40:34;3.20;57.60
1347;DHT22;667;48.796;9.480;2023-02-28T07:43:01;3.30;57.70
1347;DHT22;667;48.796;9.480;2023-02-28T07:45:27;3.30;57.60
1347;DHT22;667;48.796;9.480;2023-02-28T07:47:54;3.30;57.60
1347;DHT22;667;48.796;9.480;2023-02-28T07:50:20;3.30;57.60
1347;DHT22;667;48.796;9.480;2023-02-28T07:52:45;3.30;57.50
1347;DHT22;667;48.796;9.480;2023-02-28T07:55:11;3.30;57.50
1347;DHT22;667;48.796;9.480;2023-02-28T07:57:38;3.40;57.30
1347;DHT22;667;48.796;9.480;2023-02-28T08:00:06;3.30;57.30
1347;DHT22;667;48.796;9.480;2023-02-28T08:02:31;3.30;57.50
1347;DHT22;667;48.796;9.480;2023-02-28T08:04:57;3.30;57.40
1347;DHT22;667;48.796;9.480;2023-02-28T08:07:22;3.40;57.60
1347;DHT22;667;48.796;9.480;2023-02-28T08:09:48;3.40;57.30
1347;DHT22;667;48.796;9.480;2023-02-28T08:12:14;3.40;57.40
1347;DHT22;667;48.796;9.480;2023-02-28T08:14:40;3.50;57.50
1347;DHT22;667;48.796;9.480;2023-02-28T08:17:05;3.50;57.10
1347;DHT22;667;48.796;9.480;2023-02-28T08:19:31;3.40;57.10
1347;DHT22;667;48.796;9.480;2023-02-28T08:21:58;3.40;57.30
1347;DHT22;667;48.796;9.480;2023-02-28T08:24:24;3.50;57.40
1347;DHT22;667;48.796;9.480;2023-02-28T08:26:49;3.50;57.30
1347;DHT22;667;48.796;9.480;2023-02-28T08:29:15;3.50;57.20
1347;DHT22;667;48.796;9.480;2023-02-28T08:31:41;3.60;57.20
1347;DHT22;667;48.796;9.480;2023-02-28T08:34:12;3.60;57.00
1347;DHT22;667;48.796;9.480;2023-02-28T08:36:38;3.60;57.00
1347;DHT22;667;48.796;9.480;2023-02-28T08:39:04;3.60;56.80
1347;DHT22;667;48.796;9.480;2023-02-28T08:41:30;3.60;56.90
1347;DHT22;667;48.796;9.480;2023-02-28T08:43:56;3.70;56.60
1347;DHT22;667;48.796;9.480;2023-02-28T08:46:23;3.70;56.40
1347;DHT22;667;48.796;9.480;2023-02-28T08:48:52;3.70;56.60
1347;DHT22;667;48.796;9.480;2023-02-28T08:51:19;3.70;56.40
1347;DHT22;667;48.796;9.480;2023-02-28T08:53:52;3.70;56.50
1347;DHT22;667;48.796;9.480;2023-02-28T08:56:18;3.70;56.50
1347;DHT22;667;48.796;9.480;2023-02-28T08:58:45;3.70;56.40
1347;DHT22;667;48.796;9.480;2023-02-28T09:01:27;3.60;56.40
1347;DHT22;667;48.796;9.480;2023-02-28T09:03:53;3.60;56.50
1347;DHT22;667;48.796;9.480;2023-02-28T09:06:20;3.70;56.60
1347;DHT22;667;48.796;9.480;2023-02-28T09:08:46;3.70;56.70
1347;DHT22;667;48.796;9.480;2023-02-28T09:11:12;3.70;56.70
1347;DHT22;667;48.796;9.480;2023-02-28T09:13:38;3.80;56.70
1347;DHT22;667;48.796;9.480;2023-02-28T09:16:06;3.90;56.50
1347;DHT22;667;48.796;9.480;2023-02-28T09:18:34;4.00;56.40
1347;DHT22;667;48.796;9.480;2023-02-28T09:21:03;4.10;55.80
1347;DHT22;667;48.796;9.480;2023-02-28T09:23:28;4.10;55.90
1347;DHT22;667;48.796;9.480;2023-02-28T09:25:54;4.10;55.90
1347;DHT22;667;48.796;9.480;2023-02-28T09:28:21;4.10;55.80
1347;DHT22;667;48.796;9.480;2023-02-28T09:30:49;4.20;56.00
1347;DHT22;667;48.796;9.480;2023-02-28T09:33:15;4.20;55.80
1347;DHT22;667;48.796;9.480;2023-02-28T09:35:41;4.30;55.80
1347;DHT22;667;48.796;9.480;2023-02-28T09:38:09;4.40;55.90
1347;DHT22;667;48.796;9.480;2023-02-28T09:40:45;4.50;55.90
1347;DHT22;667;48.796;9.480;2023-02-28T09:43:14;4.50;55.40
1347;DHT22;667;48.796;9.480;2023-02-28T09:45:42;4.50;55.00
1347;DHT22;667;48.796;9.480;2023-02-28T09:48:23;4.60;54.80
1347;DHT22;667;48.796;9.480;2023-02-28T09:51:00;4.60;54.20
1347;DHT22;667;48.796;9.480;2023-02-28T09:53:36;4.60;54.10
1347;DHT22;667;48.796;9.480;2023-02-28T09:56:09;4.60;53.80
1347;DHT22;667;48.796;9.480;2023-02-28T09:58:52;4.60;53.90
1347;DHT22;667;48.796;9.480;2023-02-28T10:01:39;4.60;53.80
1347;DHT22;667;48.796;9.480;2023-02-28T10:10:15;4.80;54.40
1347;DHT22;667;48.796;9.480;2023-02-28T10:12:44;4.80;54.40
1347;DHT22;667;48.796;9.480;2023-02-28T10:15:15;4.90;54.50
1347;DHT22;667;48.796;9.480;2023-02-28T10:17:43;5.00;54.00
1347;DHT22;667;48.796;9.480;2023-02-28T10:20:14;5.00;53.50
1347;DHT22;667;48.796;9.480;2023-02-28T10:25:33;5.10;53.10
1347;DHT22;667;48.796;9.480;2023-02-28T10:28:13;5.10;53.20
1347;DHT22;667;48.796;9.480;2023-02-28T10:30:46;5.10;53.40
1347;DHT22;667;48.796;9.480;2023-02-28T10:33:19;5.10;53.00
1347;DHT22;667;48.796;9.480;2023-02-28T10:35:46;5.10;53.00
1347;DHT22;667;48.796;9.480;2023-02-28T10:38:38;5.10;53.20
1347;DHT22;667;48.796;9.480;2023-02-28T10:41:16;5.20;52.90
1347;DHT22;667;48.796;9.480;2023-02-28T10:43:43;5.20;53.00
1347;DHT22;667;48.796;9.480;2023-02-28T10:46:16;5.30;53.20
1347;DHT22;667;48.796;9.480;2023-02-28T10:49:01;5.40;53.30
1347;DHT22;667;48.796;9.480;2023-02-28T10:51:35;5.50;53.10
1347;DHT22;667;48.796;9.480;2023-02-28T10:54:02;5.60;53.20
1347;DHT22;667;48.796;9.480;2023-02-28T10:56:29;5.80;53.60
1347;DHT22;667;48.796;9.480;2023-02-28T11:06:42;6.60;51.60
1347;DHT22;667;48.796;9.480;2023-02-28T11:09:33;6.80;52.40
1347;DHT22;667;48.796;9.480;2023-02-28T11:12:18;7.00;51.10
1347;DHT22;667;48.796;9.480;2023-02-28T11:14:49;7.30;50.80
1347;DHT22;667;48.796;9.480;2023-02-28T11:17:24;7.50;50.50
1347;DHT22;667;48.796;9.480;2023-02-28T11:19:56;7.80;50.60
1347;DHT22;667;48.796;9.480;2023-02-28T11:22:26;8.00;50.00
1347;DHT22;667;48.796;9.480;2023-02-28T11:24:56;8.20;49.10
1347;DHT22;667;48.796;9.480;2023-02-28T11:29:59;8.30;47.70
1347;DHT22;667;48.796;9.480;2023-02-28T11:32:27;8.30;47.60
1347;DHT22;667;48.796;9.480;2023-02-28T11:35:04;8.30;47.90
1347;DHT22;667;48.796;9.480;2023-02-28T11:37:39;8.30;47.90
1347;DHT22;667;48.796;9.480;2023-02-28T11:40:20;8.30;47.50
1347;DHT22;667;48.796;9.480;2023-02-28T11:43:04;8.30;47.70
1347;DHT22;667;48.796;9.480;2023-02-28T11:48:27;8.30;47.40
1347;DHT22;667;48.796;9.480;2023-02-28T11:51:24;8.30;47.20
1347;DHT22;667;48.796;9.480;2023-02-28T11:56:38;8.10;47.00
1347;DHT22;667;48.796;9.480;2023-02-28T12:10:32;8.10;47.20
1347;DHT22;667;48.796;9.480;2023-02-28T12:13:23;8.10;47.10
1347;DHT22;667;48.796;9.480;2023-02-28T12:19:00;8.10;47.60
1347;DHT22;667;48.796;9.480;2023-02-28T12:24:39;8.10;46.90
1347;DHT22;667;48.796;9.480;2023-02-28T12:27:13;8.20;47.50
1347;DHT22;667;48.796;9.480;2023-02-28T12:30:02;8.10;47.10
1347;DHT22;667;48.796;9.480;2023-02-28T12:32:41;8.20;47.20
1347;DHT22;667;48.796;9.480;2023-02-28T12:35:17;8.20;46.90
1347;DHT22;667;48.796;9.480;2023-02-28T12:37:45;8.20;47.10
1347;DHT22;667;48.796;9.480;2023-02-28T12:40:25;8.30;47.40
1347;DHT22;667;48.796;9.480;2023-02-28T12:42:58;8.30;47.20
1347;DHT22;667;48.796;9.480;2023-02-28T12:45:31;8.40;47.40
1347;DHT22;667;48.796;9.480;2023-02-28T12:48:05;8.40;47.40
1347;DHT22;667;48.796;9.480;2023-02-28T12:50:32;8.40;46.40
1347;DHT22;667;48.796;9.480;2023-02-28T13:06:45;8.40;46.70
1347;DHT22;667;48.796;9.480;2023-02-28T13:09:17;8.40;47.10
1347;DHT22;667;48.796;9.480;2023-02-28T13:11:47;8.40;47.20
1347;DHT22;667;48.796;9.480;2023-02-28T13:14:35;8.40;46.60
1347;DHT22;667;48.796;9.480;2023-02-28T13:19:44;8.40;46.60
1347;DHT22;667;48.796;9.480;2023-02-28T13:24:52;8.30;46.70
1347;DHT22;667;48.796;9.480;2023-02-28T13:27:34;8.40;46.50
1347;DHT22;667;48.796;9.480;2023-02-28T13:30:01;8.30;46.40
1347;DHT22;667;48.796;9.480;2023-02-28T13:32:32;8.20;46.40
1347;DHT22;667;48.796;9.480;2023-02-28T13:40:31;8.30;46.70
1347;DHT22;667;48.796;9.480;2023-02-28T13:43:02;8.30;46.70
1347;DHT22;667;48.796;9.480;2023-02-28T13:45:29;8.30;47.10
1347;DHT22;667;48.796;9.480;2023-02-28T13:48:15;8.30;47.20
1347;DHT22;667;48.796;9.480;2023-02-28T13:50:42;8.40;47.40
1347;DHT22;667;48.796;9.480;2023-02-28T13:55:45;8.40;46.60
1347;DHT22;667;48.796;9.480;2023-02-28T13:58:26;8.40;46.70
1347;DHT22;667;48.796;9.480;2023-02-28T14:06:32;8.40;46.80
1347;DHT22;667;48.796;9.480;2023-02-28T14:08:59;8.40;46.60
1347;DHT22;667;48.796;9.480;2023-02-28T14:11:28;8.40;46.80
1347;DHT22;667;48.796;9.480;2023-02-28T14:13:54;8.40;46.60
1347;DHT22;667;48.796;9.480;2023-02-28T14:16:23;8.40;46.50
1347;DHT22;667;48.796;9.480;2023-02-28T14:19:01;8.40;46.90
1347;DHT22;667;48.796;9.480;2023-02-28T14:21:29;8.40;47.10
1347;DHT22;667;48.796;9.480;2023-02-28T14:29:35;8.40;46.80
1347;DHT22;667;48.796;9.480;2023-02-28T14:35:02;8.40;47.00
1347;DHT22;667;48.796;9.480;2023-02-28T14:37:34;8.40;46.80
1347;DHT22;667;48.796;9.480;2023-02-28T14:40:03;8.40;46.80
1347;DHT22;667;48.796;9.480;2023-02-28T14:42:37;8.40;46.70
1347;DHT22;667;48.796;9.480;2023-02-28T14:45:03;8.30;46.60
1347;DHT22;667;48.796;9.480;2023-02-28T14:47:34;8.30;46.90
1347;DHT22;667;48.796;9.480;2023-02-28T14:50:02;8.30;47.00
1347;DHT22;667;48.796;9.480;2023-02-28T14:52:31;8.30;47.00
1347;DHT22;667;48.796;9.480;2023-02-28T14:54:59;8.30;47.00
1347;DHT22;667;48.796;9.480;2023-02-28T14:57:29;8.30;46.70
1347;DHT22;667;48.796;9.480;2023-02-28T15:00:14;8.30;46.90
1347;DHT22;667;48.796;9.480;2023-02-28T15:02:41;8.20;46.80
1347;DHT22;667;48.796;9.480;2023-02-28T15:07:38;8.20;47.60
1347;DHT22;667;48.796;9.480;2023-02-28T15:12:52;8.20;48.10
1347;DHT22;667;48.796;9.480;2023-02-28T15:15:19;8.30;47.60
1347;DHT22;667;48.796;9.480;2023-02-28T15:17:49;8.20;47.30
1347;DHT22;667;48.796;9.480;2023-02-28T15:20:17;8.20;47.20
1347;DHT22;667;48.796;9.480;2023-02-28T15:22:46;8.20;47.30
1347;DHT22;667;48.796;9.480;2023-02-28T15:25:18;8.20;47.70
1347;DHT22;667;48.796;9.480;2023-02-28T15:27:48;8.20;48.00
1347;DHT22;667;48.796;9.480;2023-02-28T15:30:20;8.20;48.20
1347;DHT22;667;48.796;9.480;2023-02-28T15:33:06;8.10;48.10
1347;DHT22;667;48.796;9.480;2023-02-28T15:35:34;8.10;48.10
1347;DHT22;667;48.796;9.480;2023-02-28T15:38:15;8.10;48.30
1347;DHT22;667;48.796;9.480;2023-02-28T15:40:44;8.10;48.40
1347;DHT22;667;48.796;9.480;2023-02-28T15:43:18;8.00;48.20
1347;DHT22;667;48.796;9.480;2023-02-28T15:45:56;7.90;48.20
1347;DHT22;667;48.796;9.480;2023-02-28T15:51:09;7.90;48.30
1347;DHT22;667;48.796;9.480;2023-02-28T15:56:27;7.90;48.50
1347;DHT22;667;48.796;9.480;2023-02-28T15:59:07;7.90;48.50
1347;DHT22;667;48.796;9.480;2023-02-28T16:01:37;7.80;48.40
1347;DHT22;667;48.796;9.480;2023-02-28T16:04:23;7.80;48.50
1347;DHT22;667;48.796;9.480;2023-02-28T16:09:23;7.70;48.60
1347;DHT22;667;48.796;9.480;2023-02-28T16:11:50;7.70;48.60
1347;DHT22;667;48.796;9.480;2023-02-28T16:14:19;7.70;48.70
1347;DHT22;667;48.796;9.480;2023-02-28T16:16:48;7.60;48.80
1347;DHT22;667;48.796;9.480;2023-02-28T16:19:15;7.60;48.80
1347;DHT22;667;48.796;9.480;2023-02-28T16:21:40;7.60;48.90
1347;DHT22;667;48.796;9.480;2023-02-28T16:24:07;7.60;48.80
1347;DHT22;667;48.796;9.480;2023-02-28T16:26:32;7.60;48.90
1347;DHT22;667;48.796;9.480;2023-02-28T16:29:00;7.60;49.10
1347;DHT22;667;48.796;9.480;2023-02-28T16:31:27;7.60;49.10
1347;DHT22;667;48.796;9.480;2023-02-28T16:33:52;7.50;49.00
1347;DHT22;667;48.796;9.480;2023-02-28T16:36:21;7.50;49.20
1347;DHT22;667;48.796;9.480;2023-02-28T16:38:47;7.40;49.10
1347;DHT22;667;48.796;9.480;2023-02-28T16:41:17;7.50;49.40
1347;DHT22;667;48.796;9.480;2023-02-28T16:43:45;7.40;49.40
1347;DHT22;667;48.796;9.480;2023-02-28T16:46:11;7.40;49.40
1347;DHT22;667;48.796;9.480;2023-02-28T16:48:37;7.30;49.30
1347;DHT22;667;48.796;9.480;2023-02-28T16:51:03;7.30;49.40
1347;DHT22;667;48.796;9.480;2023-02-28T16:53:30;7.30;49.50
1347;DHT22;667;48.796;9.480;2023-02-28T16:55:55;7.30;49.60
1347;DHT22;667;48.796;9.480;2023-02-28T16:58:21;7.30;49.70
1347;DHT22;667;48.796;9.480;2023-02-28T17:00:50;7.30;49.80
1347;DHT22;667;48.796;9.480;2023-02-28T17:03:26;7.30;49.60
1347;DHT22;667;48.796;9.480;2023-02-28T17:05:52;7.20;49.70
1347;DHT22;667;48.796;9.480;2023-02-28T17:08:18;7.20;49.90
1347;DHT22;667;48.796;9.480;2023-02-28T17:10:43;7.20;50.00
1347;DHT22;667;48.796;9.480;2023-02-28T17:13:09;7.20;50.10
1347;DHT22;667;48.796;9.480;2023-02-28T17:15:35;7.20;50.20
1347;DHT22;667;48.796;9.480;2023-02-28T17:18:01;7.20;50.40
1347;DHT22;667;48.796;9.480;2023-02-28T17:20:27;7.10;50.30
1347;DHT22;667;48.796;9.480;2023-02-28T17:22:53;7.10;50.50
1347;DHT22;667;48.796;9.480;2023-02-28T17:25:20;7.10;50.40
1347;DHT22;667;48.796;9.480;2023-02-28T17:27:46;7.10;50.50
1347;DHT22;667;48.796;9.480;2023-02-28T17:32:38;7.00;51.20
1347;DHT22;667;48.796;9.480;2023-02-28T17:35:03;7.00;51.80
1347;DHT22;667;48.796;9.480;2023-02-28T17:37:29;6.90;52.20
1347;DHT22;667;48.796;9.480;2023-02-28T17:39:55;6.80;52.40
1347;DHT22;667;48.796;9.480;2023-02-28T17:42:20;6.80;52.70
1347;DHT22;667;48.796;9.480;2023-02-28T17:44:46;6.60;53.00
1347;DHT22;667;48.796;9.480;2023-02-28T17:47:12;6.60;53.30
1347;DHT22;667;48.796;9.480;2023-02-28T17:49:38;6.40;53.40
1347;DHT22;667;48.796;9.480;2023-02-28T17:52:03;6.40;53.70
1347;DHT22;667;48.796;9.480;2023-02-28T17:54:29;6.30;54.00
1347;DHT22;667;48.796;9.480;2023-02-28T17:56:55;6.20;54.20
1347;DHT22;667;48.796;9.480;2023-02-28T17:59:20;6.10;54.40
1347;DHT22;667;48.796;9.480;2023-02-28T18:01:46;6.00;54.60
1347;DHT22;667;48.796;9.480;2023-02-28T18:04:11;5.90;54.70
1347;DHT22;667;48.796;9.480;2023-02-28T18:06:39;5.80;55.00
1347;DHT22;667;48.796;9.480;2023-02-28T18:09:16;5.80;55.10
1347;DHT22;667;48.796;9.480;2023-02-28T18:11:42;5.70;55.20
1347;DHT22;667;48.796;9.480;2023-02-28T18:14:10;5.70;55.50
1347;DHT22;667;48.796;9.480;2023-02-28T18:16:37;5.60;55.70
1347;DHT22;667;48.796;9.480;2023-02-28T18:19:03;5.60;55.90
1347;DHT22;667;48.796;9.480;2023-02-28T18:21:29;5.50;56.00
1347;DHT22;667;48.796;9.480;2023-02-28T18:23:55;5.50;56.10
1347;DHT22;667;48.796;9.480;2023-02-28T18:26:21;5.50;56.30
1347;DHT22;667;48.796;9.480;2023-02-28T18:28:47;5.40;56.40
1347;DHT22;667;48.796;9.480;2023-02-28T18:31:17;5.30;56.60
1347;DHT22;667;48.796;9.480;2023-02-28T18:33:46;5.30;56.70
1347;DHT22;667;48.796;9.480;2023-02-28T18:36:12;5.20;56.80
1347;DHT22;667;48.796;9.480;2023-02-28T18:38:38;5.20;56.90
1347;DHT22;667;48.796;9.480;2023-02-28T18:41:04;5.10;57.10
1347;DHT22;667;48.796;9.480;2023-02-28T18:43:33;5.10;57.20
1347;DHT22;667;48.796;9.480;2023-02-28T18:46:11;5.00;57.30
1347;DHT22;667;48.796;9.480;2023-02-28T18:48:38;5.00;57.60
1347;DHT22;667;48.796;9.480;2023-02-28T18:51:40;4.90;57.70
1347;DHT22;667;48.796;9.480;2023-02-28T18:53:59;4.90;57.70
1347;DHT22;667;48.796;9.480;2023-02-28T18:56:25;4.90;57.70
1347;DHT22;667;48.796;9.480;2023-02-28T18:58:51;4.80;57.80
1347;DHT22;667;48.796;9.480;2023-02-28T19:03:43;4.80;58.00
1347;DHT22;667;48.796;9.480;2023-02-28T19:06:09;4.80;58.20
1347;DHT22;667;48.796;9.480;2023-02-28T19:08:35;4.80;58.10
1347;DHT22;667;48.796;9.480;2023-02-28T19:11:08;4.80;58.20
1347;DHT22;667;48.796;9.480;2023-02-28T19:13:35;4.70;58.20
1347;DHT22;667;48.796;9.480;2023-02-28T19:16:02;4.70;58.20